Time;durP1;ratioP1;P1;durP2;ratioP2;P2;SDS_P1;SDS_P2;PMS_P1;PMS_P2;Temp;Humidity;BMP_temperature;BMP_pressure;BME280_temperature;BME280_humidity;BME280_pressure;Samples;Min_cycle;Max_cycle;Signal;HPM_P1;HPM_P2
2021/05/25 00:02:10;;;;;;;0.10;0.10;;;12.50;98.00;;;;;;5017896;28;20109;-71
2021/05/25 00:04:36;;;;;;;0.10;0.10;;;12.50;98.00;;;;;;5018122;28;20022;-71
2021/05/25 00:07:02;;;;;;;0.10;0.10;;;12.50;98.00;;;;;;5017789;28;20312;-71
2021/05/25 00:09:27;;;;;;;0.93;0.20;;;12.40;98.00;;;;;;5018082;28;20034;-71
2021/05/25 00:11:53;;;;;;;0.10;0.10;;;12.40;98.00;;;;;;5017712;28;20026;-71
2021/05/25 00:14:21;;;;;;;0.10;0.10;;;12.40;98.00;;;;;;5017693;28;20052;-71
2021/05/25 00:16:50;;;;;;;0.90;0.20;;;12.30;98.00;;;;;;5017648;28;20082;-71
2021/05/25 00:19:18;;;;;;;0.55;0.20;;;12.30;98.00;;;;;;5017494;28;20034;-71
2021/05/25 00:21:44;;;;;;;0.20;0.10;;;12.20;98.00;;;;;;5017559;28;20346;-71
2021/05/25 00:24:10;;;;;;;0.88;0.15;;;12.20;98.00;;;;;;5017794;28;20022;-71
2021/05/25 00:26:36;;;;;;;1.85;0.20;;;12.10;98.00;;;;;;5017501;28;20045;-71
2021/05/25 00:29:02;;;;;;;0.60;0.15;;;12.00;98.00;;;;;;5017445;28;20474;-71
2021/05/25 00:31:28;;;;;;;0.10;0.10;;;11.90;98.00;;;;;;5017383;28;20072;-71
2021/05/25 00:33:54;;;;;;;0.20;0.10;;;11.80;98.00;;;;;;5017307;28;20026;-71
2021/05/25 00:36:21;;;;;;;0.45;0.20;;;11.80;98.00;;;;;;5017603;28;20022;-71
2021/05/25 00:38:47;;;;;;;0.57;0.20;;;11.70;98.00;;;;;;5017521;28;20041;-71
2021/05/25 00:41:13;;;;;;;0.88;0.20;;;11.70;98.00;;;;;;5017606;28;20430;-71
2021/05/25 00:43:39;;;;;;;0.10;0.10;;;11.70;98.00;;;;;;5017268;28;20033;-71
2021/05/25 00:46:05;;;;;;;1.35;0.10;;;11.60;98.00;;;;;;5017611;28;20026;-71
2021/05/25 00:48:30;;;;;;;0.45;0.10;;;11.70;98.00;;;;;;5017476;28;20035;-71
2021/05/25 00:50:56;;;;;;;1.83;0.30;;;11.70;98.00;;;;;;5017255;28;20124;-71
2021/05/25 00:53:22;;;;;;;1.10;0.30;;;11.70;98.00;;;;;;5017492;28;20033;-71
2021/05/25 00:55:48;;;;;;;0.50;0.30;;;11.80;98.00;;;;;;5017000;28;20422;-71
2021/05/25 00:58:14;;;;;;;0.90;0.22;;;11.80;98.00;;;;;;5017355;28;20401;-71
2021/05/25 01:00:42;;;;;;;0.28;0.10;;;11.90;98.00;;;;;;5016896;28;20022;-71
2021/05/25 01:03:10;;;;;;;0.10;0.10;;;11.90;98.00;;;;;;5017325;28;20018;-71
2021/05/25 01:05:36;;;;;;;0.63;0.20;;;11.90;98.00;;;;;;5017174;28;20097;-71
2021/05/25 01:08:03;;;;;;;0.10;0.10;;;12.00;98.00;;;;;;5016934;28;20037;-71
2021/05/25 01:10:36;;;;;;;1.27;0.20;;;12.00;98.00;;;;;;5017215;28;20080;-71
2021/05/25 01:13:06;;;;;;;0.98;0.10;;;12.00;98.00;;;;;;5016923;28;20109;-71
2021/05/25 01:15:33;;;;;;;0.30;0.17;;;12.10;98.00;;;;;;5016852;28;20099;-71
2021/05/25 01:17:59;;;;;;;1.17;0.20;;;12.10;98.00;;;;;;5016714;28;20057;-71
2021/05/25 01:20:29;;;;;;;2.22;0.20;;;12.10;98.00;;;;;;5016704;28;20030;-71
2021/05/25 01:22:55;;;;;;;0.50;0.10;;;12.10;98.00;;;;;;5016820;28;20033;-71
2021/05/25 01:25:22;;;;;;;0.10;0.10;;;12.00;98.00;;;;;;5017016;28;20026;-71
2021/05/25 01:28:09;;;;;;;1.65;0.17;;;11.90;98.00;;;;;;5017032;28;20034;-71
2021/05/25 01:30:38;;;;;;;0.20;0.10;;;11.90;98.00;;;;;;5017078;28;20026;-71
2021/05/25 01:33:05;;;;;;;0.52;0.17;;;11.90;98.00;;;;;;5016711;28;20036;-71
2021/05/25 01:35:32;;;;;;;0.20;0.10;;;11.90;98.00;;;;;;5016950;28;20026;-71
2021/05/25 01:37:59;;;;;;;0.35;0.10;;;11.80;98.00;;;;;;5016940;28;20057;-71
2021/05/25 01:40:26;;;;;;;3.08;0.20;;;11.80;98.00;;;;;;5016541;28;20113;-71
2021/05/25 01:42:52;;;;;;;0.47;0.10;;;11.70;98.00;;;;;;5016930;28;20057;-71
2021/05/25 01:45:24;;;;;;;1.40;0.20;;;11.70;98.00;;;;;;5016904;28;20314;-71
2021/05/25 01:47:50;;;;;;;0.70;0.20;;;11.60;98.00;;;;;;5016499;28;20037;-71
2021/05/25 01:50:18;;;;;;;1.90;0.85;;;11.50;98.00;;;;;;5016524;28;20334;-71
2021/05/25 01:52:50;;;;;;;0.75;0.75;;;11.40;98.00;;;;;;5016579;28;20022;-71
2021/05/25 01:55:33;;;;;;;2.97;0.13;;;11.40;98.00;;;;;;5016437;28;20485;-71
2021/05/25 01:58:10;;;;;;;1.23;0.20;;;11.40;98.00;;;;;;5016474;28;20038;-71
2021/05/25 02:00:38;;;;;;;0.10;0.10;;;11.40;98.00;;;;;;5016424;28;20122;-71
2021/05/25 02:03:05;;;;;;;0.82;0.22;;;11.40;98.00;;;;;;5016425;28;20033;-71
2021/05/25 02:05:32;;;;;;;0.20;0.20;;;11.30;98.00;;;;;;5016657;28;20025;-71
2021/05/25 02:07:58;;;;;;;2.85;0.10;;;11.30;98.00;;;;;;5016655;28;20357;-71
2021/05/25 02:10:27;;;;;;;2.17;0.20;;;11.30;98.00;;;;;;5016345;28;20026;-71
2021/05/25 02:12:55;;;;;;;1.83;0.20;;;11.20;98.00;;;;;;5016676;28;20105;-71
2021/05/25 02:15:21;;;;;;;0.20;0.20;;;11.20;98.00;;;;;;5019682;28;20118;-71
2021/05/25 02:17:47;;;;;;;0.35;0.20;;;11.30;98.00;;;;;;5019734;28;20115;-71
2021/05/25 02:20:13;;;;;;;0.20;0.10;;;11.40;98.00;;;;;;5019785;28;20026;-71
2021/05/25 02:22:38;;;;;;;0.32;0.20;;;11.40;98.00;;;;;;5020145;28;20030;-71
2021/05/25 02:25:06;;;;;;;0.17;0.13;;;11.40;98.00;;;;;;5020001;28;20025;-71
2021/05/25 02:27:32;;;;;;;0.47;0.17;;;11.40;98.00;;;;;;5019713;28;20422;-71
2021/05/25 02:29:58;;;;;;;4.38;0.30;;;11.40;98.00;;;;;;5019894;28;20030;-71
2021/05/25 02:32:24;;;;;;;2.90;0.20;;;11.40;98.00;;;;;;5019650;28;20176;-71
2021/05/25 02:34:49;;;;;;;0.47;0.20;;;11.40;98.00;;;;;;5019804;28;20030;-71
2021/05/25 02:37:16;;;;;;;0.52;0.25;;;11.30;98.00;;;;;;5019780;28;20054;-71
2021/05/25 02:39:42;;;;;;;0.75;0.20;;;11.30;98.00;;;;;;5019702;28;20026;-71
2021/05/25 02:42:08;;;;;;;1.80;0.30;;;11.30;98.00;;;;;;5019364;28;20414;-71
2021/05/25 02:44:33;;;;;;;0.77;0.52;;;11.20;98.00;;;;;;5019440;28;20022;-71
2021/05/25 02:46:59;;;;;;;4.35;0.40;;;11.20;98.00;;;;;;5019591;28;20117;-71
2021/05/25 02:49:25;;;;;;;3.20;0.20;;;11.20;98.00;;;;;;5019618;28;20113;-71
2021/05/25 02:51:50;;;;;;;0.57;0.30;;;11.20;98.00;;;;;;5019306;28;20410;-71
2021/05/25 02:54:16;;;;;;;0.75;0.20;;;11.20;98.00;;;;;;5019493;28;20109;-71
2021/05/25 02:56:42;;;;;;;0.63;0.20;;;11.20;98.00;;;;;;5019384;28;20072;-71
2021/05/25 02:59:08;;;;;;;0.52;0.40;;;11.20;98.00;;;;;;5019051;28;20110;-71
2021/05/25 03:01:33;;;;;;;0.93;0.22;;;11.20;98.00;;;;;;5019423;28;20026;-71
2021/05/25 03:03:59;;;;;;;0.82;0.30;;;11.20;98.00;;;;;;5019336;28;20358;-71
2021/05/25 03:06:25;;;;;;;2.25;0.40;;;11.20;98.00;;;;;;5019030;28;20026;-71
2021/05/25 03:08:50;;;;;;;0.35;0.20;;;11.20;98.00;;;;;;5018921;28;20097;-71
2021/05/25 03:11:16;;;;;;;0.93;0.25;;;11.20;98.00;;;;;;5019222;28;20034;-71
2021/05/25 03:13:42;;;;;;;2.42;0.30;;;11.20;98.00;;;;;;5019202;28;20096;-71
2021/05/25 03:16:08;;;;;;;0.90;0.30;;;11.10;98.00;;;;;;5018891;28;20319;-71
2021/05/25 03:18:33;;;;;;;1.23;0.50;;;11.10;98.00;;;;;;5018762;28;20069;-71
2021/05/25 03:20:59;;;;;;;1.02;0.60;;;11.00;98.00;;;;;;5018592;28;20025;-71
2021/05/25 03:23:25;;;;;;;0.88;0.60;;;11.00;98.00;;;;;;5018751;28;20037;-71
2021/05/25 03:25:53;;;;;;;0.88;0.60;;;10.90;98.00;;;;;;5017836;28;20037;-71
2021/05/25 03:28:19;;;;;;;1.55;0.65;;;10.80;98.00;;;;;;5018874;28;20025;-71
2021/05/25 03:30:45;;;;;;;1.25;0.60;;;10.70;98.00;;;;;;5018770;28;20108;-71
2021/05/25 03:33:11;;;;;;;0.47;0.40;;;10.60;98.00;;;;;;5018789;28;20033;-71
2021/05/25 03:35:37;;;;;;;3.25;0.60;;;10.60;98.00;;;;;;5018663;28;20037;-71
2021/05/25 03:38:04;;;;;;;2.15;0.77;;;10.60;98.00;;;;;;5018678;28;20022;-71
2021/05/25 03:40:30;;;;;;;0.50;0.35;;;10.60;98.00;;;;;;5018562;28;20033;-71
2021/05/25 03:42:56;;;;;;;1.23;0.38;;;10.60;98.00;;;;;;5018321;28;20315;-71
2021/05/25 03:45:24;;;;;;;1.50;0.50;;;10.60;98.00;;;;;;5018126;28;20065;-71
2021/05/25 03:47:50;;;;;;;1.08;0.45;;;10.50;98.00;;;;;;5018143;28;20136;-71
2021/05/25 03:50:17;;;;;;;3.70;0.55;;;10.60;98.00;;;;;;5018143;28;20430;-71
2021/05/25 03:52:57;;;;;;;2.35;0.40;;;10.70;98.00;;;;;;5018407;28;20029;-71
2021/05/25 04:00:38;;;;;;;498.38;18.40;;;11.00;98.00;;;;;;5018161;28;20080;-71
2021/05/25 04:03:04;;;;;;;746.47;26.73;;;11.10;98.00;;;;;;5017918;28;20038;-71
2021/05/25 04:05:30;;;;;;;612.72;21.73;;;11.20;98.00;;;;;;5017846;28;20034;-71
2021/05/25 04:07:55;;;;;;;213.55;7.30;;;11.30;98.00;;;;;;5017784;28;20028;-71
2021/05/25 04:10:21;;;;;;;325.52;11.13;;;11.30;98.00;;;;;;5017779;28;20026;-71
2021/05/25 04:12:47;;;;;;;43.42;2.45;;;11.40;98.00;;;;;;5018033;28;20025;-71
2021/05/25 04:15:13;;;;;;;10.88;1.40;;;11.40;98.00;;;;;;5017876;28;20434;-71
2021/05/25 04:17:41;;;;;;;69.10;3.35;;;11.40;98.00;;;;;;5017472;28;20136;-71
2021/05/25 04:20:11;;;;;;;74.45;3.92;;;11.50;98.00;;;;;;5017797;28;20173;-71
2021/05/25 04:22:38;;;;;;;158.57;6.63;;;11.50;98.00;;;;;;5017721;28;20370;-71
2021/05/25 04:25:05;;;;;;;211.25;8.55;;;11.50;98.00;;;;;;5017450;28;20104;-71
2021/05/25 04:27:30;;;;;;;140.43;5.22;;;11.50;98.00;;;;;;5017774;28;20025;-71
2021/05/25 04:29:56;;;;;;;309.33;11.10;;;11.50;98.00;;;;;;5017465;28;20462;-71
2021/05/25 04:32:22;;;;;;;359.00;14.35;;;11.50;98.00;;;;;;5017764;28;20025;-71
2021/05/25 04:34:48;;;;;;;310.17;11.90;;;11.50;98.00;;;;;;5017635;28;20407;-71
2021/05/25 04:37:13;;;;;;;320.50;12.05;;;11.50;98.00;;;;;;5017399;28;20032;-71
2021/05/25 04:39:39;;;;;;;118.93;6.57;;;11.50;98.00;;;;;;5017176;28;20034;-71
2021/05/25 04:42:05;;;;;;;13.52;3.17;;;11.50;98.00;;;;;;5017268;28;20109;-71
2021/05/25 04:44:30;;;;;;;52.50;4.18;;;11.70;98.00;;;;;;5017494;28;20033;-71
2021/05/25 04:46:56;;;;;;;26.60;3.58;;;11.80;98.00;;;;;;5017182;28;20308;-71
2021/05/25 04:49:22;;;;;;;49.88;4.35;;;11.90;98.00;;;;;;5017152;28;20036;-71
2021/05/25 04:51:47;;;;;;;22.63;2.40;;;12.00;98.00;;;;;;5017123;28;20030;-71
2021/05/25 04:54:13;;;;;;;9.68;2.45;;;12.00;98.00;;;;;;5017111;28;20030;-71
2021/05/25 04:56:40;;;;;;;9.95;2.53;;;12.00;98.00;;;;;;5017093;28;20026;-71
2021/05/25 04:59:06;;;;;;;87.90;5.07;;;12.10;98.00;;;;;;5017273;28;20033;-71
2021/05/25 05:01:32;;;;;;;14.13;2.20;;;12.20;98.00;;;;;;5016995;28;20467;-71
2021/05/25 05:03:58;;;;;;;5.03;2.63;;;12.10;98.00;;;;;;5017253;28;20029;-71
2021/05/25 05:06:23;;;;;;;30.40;3.42;;;12.00;98.00;;;;;;5017259;28;20425;-71
2021/05/25 05:08:49;;;;;;;21.52;3.20;;;12.00;98.00;;;;;;5016956;28;20022;-71
2021/05/25 05:11:15;;;;;;;34.13;3.40;;;12.10;98.00;;;;;;5017458;28;20022;-71
2021/05/25 05:13:41;;;;;;;23.20;3.70;;;12.10;98.00;;;;;;5017226;28;20030;-71
2021/05/25 05:16:07;;;;;;;6.28;2.50;;;12.10;98.00;;;;;;5016943;28;20049;-71
2021/05/25 05:18:33;;;;;;;2.40;2.20;;;12.10;98.00;;;;;;5016860;28;20069;-71
2021/05/25 05:20:59;;;;;;;3.58;1.70;;;12.10;98.00;;;;;;5017010;28;20026;-71
2021/05/25 05:23:24;;;;;;;3.25;1.83;;;12.10;98.00;;;;;;5017157;28;20373;-72
2021/05/25 05:25:50;;;;;;;4.50;2.50;;;12.10;98.00;;;;;;5016716;28;20026;-71
2021/05/25 05:28:16;;;;;;;3.08;2.10;;;12.20;98.00;;;;;;5016758;28;20029;-71
2021/05/25 05:30:42;;;;;;;3.05;2.15;;;12.30;98.00;;;;;;5016662;28;20061;-71
2021/05/25 05:33:09;;;;;;;2.95;1.90;;;12.30;98.00;;;;;;5017026;28;20101;-71
2021/05/25 05:35:35;;;;;;;2.08;1.85;;;12.40;98.00;;;;;;5016941;28;20030;-71
2021/05/25 05:38:00;;;;;;;2.25;1.90;;;12.30;98.00;;;;;;5016634;28;20482;-71
2021/05/25 05:40:26;;;;;;;13.27;2.60;;;12.30;98.00;;;;;;5016822;28;20027;-71
2021/05/25 05:42:52;;;;;;;3.17;2.40;;;12.40;98.00;;;;;;5016966;28;20057;-71
2021/05/25 05:45:20;;;;;;;3.42;2.42;;;12.50;98.00;;;;;;5016929;28;20021;-71
2021/05/25 05:47:47;;;;;;;4.75;2.90;;;12.50;98.00;;;;;;5016560;28;20045;-72
2021/05/25 05:50:13;;;;;;;4.50;2.80;;;12.50;98.00;;;;;;5020437;28;20069;-71
2021/05/25 05:52:39;;;;;;;2.75;2.42;;;12.50;98.00;;;;;;5020382;28;20430;-71
2021/05/25 05:55:06;;;;;;;3.58;3.28;;;12.50;98.00;;;;;;5035728;28;20030;-71
2021/05/25 05:57:33;;;;;;;4.43;3.47;;;12.50;98.00;;;;;;5020535;28;20037;-72
2021/05/25 05:59:59;;;;;;;10.55;3.58;;;12.50;98.00;;;;;;5020453;28;20061;-71
2021/05/25 06:02:24;;;;;;;97.32;8.27;;;12.60;98.00;;;;;;5020174;28;20410;-71
2021/05/25 06:04:50;;;;;;;32.08;5.65;;;12.60;98.00;;;;;;5020108;28;20124;-71
2021/05/25 06:07:17;;;;;;;46.50;6.65;;;12.60;98.00;;;;;;5020421;28;20026;-71
2021/05/25 06:09:43;;;;;;;101.82;8.40;;;12.60;98.00;;;;;;5020026;28;20034;-71
2021/05/25 06:12:09;;;;;;;80.03;7.28;;;12.50;98.00;;;;;;5020262;28;20033;-71
2021/05/25 06:14:36;;;;;;;141.25;9.45;;;12.50;98.00;;;;;;5020219;28;20414;-72
2021/05/25 06:17:02;;;;;;;402.70;14.52;;;12.50;98.00;;;;;;5019837;28;20057;-71
2021/05/25 06:19:28;;;;;;;385.92;14.27;;;12.50;98.00;;;;;;5020114;28;20323;-71
2021/05/25 06:21:53;;;;;;;154.25;8.70;;;12.40;98.00;;;;;;5019762;28;20026;-71
2021/05/25 06:24:19;;;;;;;621.15;20.90;;;12.40;98.00;;;;;;5019779;28;20026;-71
2021/05/25 06:26:45;;;;;;;434.45;13.93;;;12.40;98.00;;;;;;5019733;28;20105;-71
2021/05/25 06:29:11;;;;;;;547.10;16.63;;;12.30;98.00;;;;;;5019657;28;20109;-71
2021/05/25 06:31:37;;;;;;;214.10;7.63;;;12.30;98.00;;;;;;5019608;28;20076;-71
2021/05/25 06:34:02;;;;;;;306.17;10.77;;;12.30;98.00;;;;;;5020386;28;20037;-71
2021/05/25 06:36:29;;;;;;;50.00;3.42;;;12.30;98.00;;;;;;5019848;28;20049;-70
2021/05/25 06:38:54;;;;;;;188.68;5.40;;;12.30;98.00;;;;;;5019761;28;20034;-71
2021/05/25 06:41:20;;;;;;;237.15;8.30;;;12.30;98.00;;;;;;5019444;28;20030;-71
2021/05/25 06:43:46;;;;;;;317.65;10.40;;;12.30;98.00;;;;;;5019483;28;20022;-71
2021/05/25 06:46:11;;;;;;;246.40;7.50;;;12.30;98.00;;;;;;5019828;28;20115;-71
2021/05/25 06:48:37;;;;;;;240.70;7.80;;;12.20;98.00;;;;;;5019378;28;20030;-71
2021/05/25 06:51:07;;;;;;;347.88;11.48;;;12.30;98.00;;;;;;5019256;28;20029;-71
2021/05/25 06:53:34;;;;;;;383.77;10.00;;;12.30;98.00;;;;;;5019331;28;20169;-71
2021/05/25 06:55:59;;;;;;;565.50;15.73;;;12.30;98.00;;;;;;5019435;28;20326;-71
2021/05/25 06:58:25;;;;;;;238.00;7.60;;;12.30;98.00;;;;;;5019454;28;20030;-71
2021/05/25 07:00:51;;;;;;;636.40;18.52;;;12.30;98.00;;;;;;5018837;28;20033;-71
2021/05/25 07:03:17;;;;;;;576.85;17.80;;;12.30;98.00;;;;;;5019867;28;20097;-71
2021/05/25 07:05:42;;;;;;;470.83;13.98;;;12.20;98.00;;;;;;5019237;28;20037;-71
2021/05/25 07:08:08;;;;;;;444.90;11.55;;;12.20;98.00;;;;;;5017969;28;20048;-71
2021/05/25 07:10:34;;;;;;;138.57;4.78;;;12.30;98.00;;;;;;5018943;28;20116;-71
2021/05/25 07:13:00;;;;;;;262.85;8.65;;;12.30;98.00;;;;;;5018889;28;20464;-71
2021/05/25 07:15:26;;;;;;;169.60;5.63;;;12.30;98.00;;;;;;5019171;28;20034;-71
2021/05/25 07:17:56;;;;;;;206.25;6.15;;;12.30;98.00;;;;;;5018721;28;20345;-71
2021/05/25 07:20:23;;;;;;;422.80;11.07;;;12.30;98.00;;;;;;5018669;28;20060;-70
2021/05/25 07:22:52;;;;;;;298.55;8.13;;;12.30;98.00;;;;;;5018704;28;20402;-70
2021/05/25 07:25:18;;;;;;;508.92;13.95;;;12.30;98.00;;;;;;5018861;28;20057;-71
2021/05/25 07:27:44;;;;;;;414.58;12.73;;;12.20;98.00;;;;;;5018544;28;20029;-71
2021/05/25 07:30:10;;;;;;;418.50;12.88;;;12.30;98.00;;;;;;5018844;28;20030;-71
2021/05/25 07:32:37;;;;;;;428.60;13.88;;;12.40;98.00;;;;;;5018504;28;20029;-71
2021/05/25 07:35:03;;;;;;;7.90;4.85;;;12.40;98.00;;;;;;5018730;28;20029;-71
2021/05/25 07:37:28;;;;;;;640.88;22.38;;;12.40;98.00;;;;;;5018681;28;20113;-71
2021/05/25 07:39:54;;;;;;;633.67;19.40;;;12.40;98.00;;;;;;5018544;28;20117;-71
2021/05/25 07:42:20;;;;;;;522.80;17.48;;;12.40;98.00;;;;;;5018616;28;20434;-71
2021/05/25 07:44:46;;;;;;;171.98;11.65;;;12.50;98.00;;;;;;5018380;28;20394;-71
2021/05/25 07:47:11;;;;;;;63.63;10.40;;;12.50;98.00;;;;;;5018536;28;20073;-71
2021/05/25 07:49:37;;;;;;;146.25;12.73;;;12.50;98.00;;;;;;5018169;28;20057;-71
2021/05/25 07:52:04;;;;;;;233.45;13.20;;;12.50;98.00;;;;;;5018405;28;20025;-71
2021/05/25 07:54:29;;;;;;;557.25;19.33;;;12.50;98.00;;;;;;5018029;28;20026;-71
2021/05/25 07:56:55;;;;;;;199.52;11.18;;;12.50;98.00;;;;;;5018323;28;20026;-71
2021/05/25 07:59:21;;;;;;;655.55;22.58;;;12.40;98.00;;;;;;5017916;28;20454;-71
2021/05/25 08:01:47;;;;;;;526.85;20.13;;;12.50;98.00;;;;;;5018239;28;20034;-71
2021/05/25 08:04:12;;;;;;;516.28;21.83;;;12.50;98.00;;;;;;5017856;28;20084;-71
2021/05/25 08:06:38;;;;;;;230.43;17.60;;;12.60;98.00;;;;;;5017880;28;20072;-71
2021/05/25 08:09:06;;;;;;;216.00;16.77;;;12.80;98.00;;;;;;5017826;28;20018;-71
2021/05/25 08:11:32;;;;;;;138.48;12.30;;;12.80;98.00;;;;;;5017569;28;20053;-71
2021/05/25 08:13:58;;;;;;;557.75;25.48;;;12.80;98.00;;;;;;5017701;28;20368;-71
2021/05/25 08:16:29;;;;;;;491.55;24.27;;;12.80;98.00;;;;;;5017514;28;20442;-71
2021/05/25 08:21:38;;;;;;;205.07;14.85;;;12.80;98.00;;;;;;5017658;28;20026;-71
2021/05/25 08:24:05;;;;;;;635.80;28.23;;;12.80;98.00;;;;;;5017600;28;20028;-71
2021/05/25 08:26:31;;;;;;;692.13;29.83;;;12.80;98.00;;;;;;5017563;28;20475;-71
2021/05/25 08:28:57;;;;;;;542.08;22.52;;;12.70;98.00;;;;;;5017750;28;20113;-71
2021/05/25 08:31:23;;;;;;;537.38;21.02;;;12.60;98.00;;;;;;5017730;28;20030;-71
2021/05/25 08:33:49;;;;;;;609.58;24.95;;;12.60;98.00;;;;;;5017779;28;20026;-71
2021/05/25 08:36:16;;;;;;;224.27;13.82;;;12.60;98.00;;;;;;5017592;28;20418;-71
2021/05/25 08:38:42;;;;;;;1561.95;56.65;;;12.60;98.00;;;;;;5017396;28;20509;-71
2021/05/25 08:41:08;;;;;;;772.45;30.35;;;12.50;98.00;;;;;;5017247;28;20038;-71
2021/05/25 08:43:34;;;;;;;374.77;18.85;;;12.50;98.00;;;;;;5017347;28;20105;-71
2021/05/25 08:46:00;;;;;;;296.98;21.42;;;12.40;98.00;;;;;;5017653;28;20088;-71
2021/05/25 08:48:25;;;;;;;175.45;16.92;;;12.50;98.00;;;;;;5017204;28;20080;-71
2021/05/25 08:50:56;;;;;;;193.18;17.55;;;12.50;98.00;;;;;;5017236;28;20110;-71
2021/05/25 08:53:22;;;;;;;86.68;15.43;;;12.60;98.00;;;;;;5017475;28;20044;-71
2021/05/25 08:55:50;;;;;;;172.60;18.23;;;12.70;98.00;;;;;;5017061;28;20432;-71
2021/05/25 08:58:17;;;;;;;23.90;15.63;;;12.90;98.00;;;;;;5017046;28;20055;-71
2021/05/25 09:00:42;;;;;;;106.55;18.38;;;13.00;98.00;;;;;;5016885;28;20049;-71
2021/05/25 09:03:08;;;;;;;30.00;16.17;;;13.10;98.00;;;;;;5017326;28;20057;-71
2021/05/25 09:05:34;;;;;;;34.15;18.15;;;13.20;98.00;;;;;;5017240;28;20022;-71
2021/05/25 09:08:00;;;;;;;69.63;18.35;;;13.30;98.00;;;;;;5017263;28;20025;-71
2021/05/25 09:10:42;;;;;;;32.08;17.27;;;13.30;98.00;;;;;;5017227;28;20050;-71
2021/05/25 09:13:17;;;;;;;21.02;17.52;;;13.20;98.00;;;;;;5017220;28;20473;-71
2021/05/25 09:15:48;;;;;;;30.90;20.30;;;13.10;98.00;;;;;;5016726;28;20022;-71
2021/05/25 09:18:23;;;;;;;143.15;22.45;;;13.10;98.00;;;;;;5016765;28;20265;-71
2021/05/25 09:20:53;;;;;;;25.10;18.35;;;13.00;98.00;;;;;;5017047;28;20318;-71
2021/05/25 09:23:20;;;;;;;22.55;20.15;;;13.10;98.00;;;;;;5017732;28;20029;-71
2021/05/25 09:25:52;;;;;;;21.13;18.75;;;13.40;98.00;;;;;;5020828;28;20033;-71
2021/05/25 09:28:18;;;;;;;22.95;19.45;;;13.60;98.00;;;;;;5021186;28;20097;-71
2021/05/25 09:30:48;;;;;;;22.25;19.67;;;13.80;97.40;;;;;;5020763;28;20034;-71
2021/05/25 09:33:16;;;;;;;21.77;19.48;;;14.10;98.00;;;;;;5021068;28;20033;-71
2021/05/25 09:35:46;;;;;;;22.88;18.90;;;14.40;98.00;;;;;;5020898;28;20033;-71
2021/05/25 09:38:14;;;;;;;20.55;18.45;;;14.50;98.00;;;;;;5020939;28;20083;-71
2021/05/25 09:40:43;;;;;;;21.27;18.98;;;14.70;96.80;;;;;;5020820;28;20034;-71
2021/05/25 09:43:20;;;;;;;21.25;18.08;;;14.80;96.20;;;;;;5020893;28;20021;-71
2021/05/25 09:45:55;;;;;;;23.35;19.23;;;15.10;96.00;;;;;;5020861;28;20041;-71
2021/05/25 09:48:21;;;;;;;19.63;17.63;;;15.60;94.70;;;;;;5020817;28;20037;-71
2021/05/25 09:50:47;;;;;;;21.33;17.55;;;15.80;90.50;;;;;;5020714;28;20034;-71
2021/05/25 09:53:21;;;;;;;19.20;17.20;;;16.20;91.40;;;;;;5020746;28;20026;-71
2021/05/25 09:56:03;;;;;;;21.70;18.80;;;16.80;92.30;;;;;;5020267;28;20033;-71
2021/05/25 09:58:32;;;;;;;22.05;16.60;;;17.00;91.70;;;;;;5020626;28;20033;-71
2021/05/25 10:01:02;;;;;;;20.58;17.70;;;17.40;88.80;;;;;;5020132;28;20037;-71
2021/05/25 10:03:29;;;;;;;16.90;15.20;;;18.00;88.70;;;;;;5020133;28;20105;-71
2021/05/25 10:06:00;;;;;;;21.48;14.82;;;18.80;82.60;;;;;;5020403;28;20057;-71
2021/05/25 10:08:26;;;;;;;15.60;14.00;;;19.50;83.50;;;;;;5020450;28;20030;-71
2021/05/25 10:10:59;;;;;;;15.32;13.82;;;19.30;80.50;;;;;;5020322;28;20048;-71
2021/05/25 10:13:26;;;;;;;18.70;13.88;;;18.70;80.60;;;;;;5020354;28;20350;-71
2021/05/25 10:15:53;;;;;;;15.63;14.07;;;18.00;80.30;;;;;;5021768;28;20038;-71
2021/05/25 10:18:36;;;;;;;15.68;14.18;;;17.60;85.10;;;;;;5030961;28;20045;-71
2021/05/25 10:21:08;;;;;;;15.45;13.93;;;17.50;83.40;;;;;;5020144;28;20381;-71
2021/05/25 10:23:35;;;;;;;14.00;12.57;;;17.30;85.00;;;;;;5020189;28;20029;-71
2021/05/25 10:26:09;;;;;;;15.68;13.93;;;17.00;87.20;;;;;;5019946;28;20091;-71
2021/05/25 10:28:40;;;;;;;14.85;13.38;;;17.10;87.40;;;;;;5018893;28;20018;-71
2021/05/25 10:31:26;;;;;;;15.07;13.38;;;18.20;85.70;;;;;;5019755;28;20026;-71
2021/05/25 10:34:11;;;;;;;21.40;12.00;;;19.50;79.30;;;;;;5019637;28;20033;-71
2021/05/25 10:36:44;;;;;;;15.43;12.15;;;20.00;83.60;;;;;;5019617;28;20120;-71
2021/05/25 10:39:35;;;;;;;13.65;12.35;;;20.40;83.40;;;;;;5019786;28;20030;-71
2021/05/25 10:42:20;;;;;;;13.32;11.43;;;20.40;75.10;;;;;;5019822;28;20046;-71
2021/05/25 10:44:54;;;;;;;13.02;11.73;;;19.40;78.10;;;;;;5019567;28;20030;-71
2021/05/25 10:47:38;;;;;;;13.27;11.88;;;18.70;79.10;;;;;;5019442;28;20029;-71
2021/05/25 10:52:40;;;;;;;14.60;11.30;;;19.10;82.70;;;;;;5019368;28;20033;-71
2021/05/25 10:55:07;;;;;;;13.18;11.77;;;18.80;85.50;;;;;;5019217;28;20113;-71
2021/05/25 10:57:36;;;;;;;14.65;13.15;;;18.40;80.90;;;;;;5019538;28;20149;-71
2021/05/25 11:00:05;;;;;;;14.52;12.95;;;18.50;86.40;;;;;;5019097;28;20038;-71
2021/05/25 11:02:49;;;;;;;15.25;13.45;;;18.10;83.40;;;;;;5019153;28;20402;-71
2021/05/25 11:05:28;;;;;;;16.48;14.77;;;17.70;84.40;;;;;;5019281;28;20030;-71
2021/05/25 11:08:17;;;;;;;16.20;14.55;;;17.20;87.40;;;;;;5019303;28;20026;-71
2021/05/25 11:10:50;;;;;;;17.58;15.73;;;16.60;89.10;;;;;;5018850;28;20038;-71
2021/05/25 11:13:16;;;;;;;21.05;17.83;;;16.30;90.90;;;;;;5019329;28;20022;-71
2021/05/25 11:16:18;;;;;;;20.85;17.67;;;16.40;90.30;;;;;;5019100;28;20030;-71
2021/05/25 11:19:04;;;;;;;18.90;17.00;;;16.80;89.20;;;;;;5018819;28;20037;-71
2021/05/25 11:24:50;;;;;;;19.08;17.17;;;17.90;83.00;;;;;;5018935;28;20334;-71
2021/05/25 11:27:43;;;;;;;17.00;15.20;;;18.30;87.90;;;;;;5018644;28;20101;-71
2021/05/25 11:30:21;;;;;;;17.20;15.40;;;18.30;85.50;;;;;;5018588;28;20414;-71
2021/05/25 11:32:47;;;;;;;18.83;16.38;;;18.10;85.20;;;;;;5018887;28;20318;-71
2021/05/25 11:35:23;;;;;;;20.90;16.98;;;18.10;79.40;;;;;;5018415;28;20029;-71
2021/05/25 11:37:52;;;;;;;;;;;17.80;86.50;;;;;;5019117;28;20326;-71
2021/05/25 11:40:20;;;;;;;18.85;16.80;;;17.30;84.80;;;;;;5018609;28;19952;-71
2021/05/25 11:42:48;;;;;;;19.23;17.15;;;17.00;90.10;;;;;;5018375;28;20026;-71
2021/05/25 11:45:16;;;;;;;19.60;17.60;;;16.60;88.00;;;;;;5018611;28;20292;-71
2021/05/25 11:47:42;;;;;;;19.73;17.63;;;16.40;89.90;;;;;;5017501;28;20030;-71
2021/05/25 11:50:12;;;;;;;19.52;17.42;;;16.10;87.60;;;;;;5018203;28;20108;-71
2021/05/25 11:52:39;;;;;;;17.45;15.68;;;16.00;91.40;;;;;;5018186;28;20136;-71
2021/05/25 11:55:07;;;;;;;18.35;16.17;;;15.90;89.90;;;;;;5018054;28;20101;-71
2021/05/25 11:57:37;;;;;;;19.70;17.63;;;15.80;92.20;;;;;;5018003;28;20410;-71
2021/05/25 12:00:12;;;;;;;20.48;16.92;;;15.70;90.70;;;;;;5018296;28;20326;-71
2021/05/25 12:02:39;;;;;;;18.92;16.88;;;15.60;90.80;;;;;;5017987;28;20026;-71
2021/05/25 12:05:12;;;;;;;20.15;17.98;;;15.50;93.40;;;;;;5017879;28;20441;-71
2021/05/25 12:07:40;;;;;;;18.13;16.33;;;15.40;94.40;;;;;;5017916;28;20033;-71
2021/05/25 12:10:12;;;;;;;23.35;17.52;;;15.30;94.20;;;;;;5017826;28;20426;-71
2021/05/25 12:12:40;;;;;;;25.98;17.42;;;15.20;94.40;;;;;;5018157;28;20109;-71
2021/05/25 12:15:18;;;;;;;29.70;17.40;;;15.00;96.30;;;;;;5018066;28;20287;-71
2021/05/25 12:17:47;;;;;;;24.45;18.60;;;14.80;96.80;;;;;;5017633;28;20181;-71
2021/05/25 12:20:17;;;;;;;24.83;19.40;;;14.50;97.70;;;;;;5017622;28;20025;-71
2021/05/25 12:22:44;;;;;;;25.02;18.95;;;14.30;98.00;;;;;;5018020;28;20097;-71
2021/05/25 12:25:28;;;;;;;21.33;19.13;;;14.30;98.00;;;;;;5017864;28;20033;-71
2021/05/25 12:28:05;;;;;;;22.55;19.13;;;14.40;98.00;;;;;;5017876;28;20338;-71
2021/05/25 12:30:31;;;;;;;24.13;19.92;;;14.30;98.00;;;;;;5017832;28;20018;-71
2021/05/25 12:32:57;;;;;;;23.33;20.70;;;14.50;98.00;;;;;;5017766;28;20053;-71
2021/05/25 12:35:25;;;;;;;22.38;18.48;;;15.10;98.00;;;;;;5017437;28;20440;-71
2021/05/25 12:38:06;;;;;;;19.63;17.60;;;15.50;93.80;;;;;;5017391;28;20419;-71
2021/05/25 12:40:33;;;;;;;20.75;18.38;;;15.50;94.70;;;;;;5017305;28;20136;-71
2021/05/25 12:42:59;;;;;;;20.35;18.35;;;15.50;96.30;;;;;;5017620;28;20022;-71
2021/05/25 12:45:30;;;;;;;20.08;17.95;;;15.70;97.90;;;;;;5017620;28;20037;-71
2021/05/25 12:48:00;;;;;;;19.52;17.52;;;15.70;97.20;;;;;;5017542;28;20052;-71
2021/05/25 12:50:34;;;;;;;17.88;15.98;;;15.60;94.90;;;;;;5017229;28;20036;-71
2021/05/25 12:53:08;;;;;;;19.52;17.50;;;15.30;92.50;;;;;;5017220;28;20033;-71